Time,TemperatureF,DewpointF,PressureIn,WindDirection,WindDirectionDegrees,WindSpeedMPH,WindSpeedGustMPH,Humidity,HourlyPrecipIn,Conditions,Clouds,dailyrainin,SoftwareType,DateUTC
2013-01-17 00:02:00,31.0,20.0,30.19,NE,51,6.0,9.0,63,0.00,,,0.00,,2013-01-17 06:02:00,
2013-01-17 00:12:00,31.0,20.0,30.19,NE,51,6.0,9.0,63,0.00,,,0.00,,2013-01-17 06:12:00,
2013-01-17 00:22:00,31.0,20.0,30.19,NE,51,6.0,9.0,63,0.00,,,0.00,,2013-01-17 06:22:00,
2013-01-17 01:53:00,27.0,18.0,30.22,East,80,5.0,5.0,68,0.00,,,0.00,,2013-01-17 07:53:00,
2013-01-17 02:02:00,27.0,18.0,30.22,East,80,5.0,5.0,68,0.00,,,0.00,,2013-01-17 08:02:00,
2013-01-17 02:12:00,27.0,18.0,30.22,East,80,5.0,5.0,68,0.00,,,0.00,,2013-01-17 08:12:00,
2013-01-17 02:22:00,27.0,18.0,30.22,East,80,5.0,5.0,68,0.00,,,0.00,,2013-01-17 08:22:00,
2013-01-17 03:52:00,23.0,12.0,30.28,ENE,60,3.0,5.0,62,0.00,,,0.00,,2013-01-17 09:52:00,
2013-01-17 04:02:00,23.0,12.0,30.28,ENE,60,3.0,5.0,62,0.00,,,0.00,,2013-01-17 10:02:00,
2013-01-17 04:12:00,23.0,12.0,30.28,ENE,60,3.0,5.0,62,0.00,,,0.00,,2013-01-17 10:12:00,
2013-01-17 04:22:00,23.0,12.0,30.28,ENE,60,3.0,5.0,62,0.00,,,0.00,,2013-01-17 10:22:00,
2013-01-17 05:53:00,19.0,6.0,30.37,NNE,22,5.0,7.0,57,0.00,,,0.00,,2013-01-17 11:53:00,
2013-01-17 06:02:00,19.0,6.0,30.37,NNE,22,5.0,7.0,57,0.00,,,0.00,,2013-01-17 12:02:00,
2013-01-17 06:12:00,19.0,6.0,30.37,NNE,22,5.0,7.0,57,0.00,,,0.00,,2013-01-17 12:12:00,
2013-01-17 06:22:00,19.0,6.0,30.37,NNE,22,5.0,7.0,57,0.00,,,0.00,,2013-01-17 12:22:00,
2013-01-17 07:43:00,17.0,2.0,30.37,NNE,31,0.0,0.0,50,0.00,,,0.00,,2013-01-17 13:43:00,
2013-01-17 07:53:00,17.0,2.0,30.37,NNE,31,0.0,0.0,50,0.00,,,0.00,,2013-01-17 13:53:00,
2013-01-17 08:03:00,17.0,2.0,30.37,NNE,31,0.0,0.0,50,0.00,,,0.00,,2013-01-17 14:03:00,
2013-01-17 08:12:00,17.0,2.0,30.37,NNE,31,0.0,0.0,50,0.00,,,0.00,,2013-01-17 14:12:00,
2013-01-17 08:23:00,17.0,2.0,30.37,NNE,31,0.0,0.0,50,0.00,,,0.00,,2013-01-17 14:23:00,
2013-01-17 09:53:00,21.0,6.0,30.42,NNE,17,0.0,0.0,52,0.00,,,0.00,,2013-01-17 15:53:00,
2013-01-17 10:02:00,21.0,6.0,30.42,NNE,17,0.0,0.0,52,0.00,,,0.00,,2013-01-17 16:02:00,
2013-01-17 10:12:00,21.0,6.0,30.42,NNE,17,0.0,0.0,52,0.00,,,0.00,,2013-01-17 16:12:00,
2013-01-17 10:22:00,21.0,6.0,30.42,NNE,17,0.0,0.0,52,0.00,,,0.00,,2013-01-17 16:22:00,
2013-01-17 11:53:00,26.0,7.0,30.42,NNE,14,0.0,0.0,43,0.00,,,0.00,,2013-01-17 17:53:00,
2013-01-17 12:03:00,26.0,7.0,30.42,NNE,14,0.0,0.0,43,0.00,,,0.00,,2013-01-17 18:03:00,
2013-01-17 12:12:00,26.0,7.0,30.42,NNE,14,0.0,0.0,43,0.00,,,0.00,,2013-01-17 18:12:00,
2013-01-17 12:22:00,26.0,7.0,30.42,NNE,14,0.0,0.0,43,0.00,,,0.00,,2013-01-17 18:22:00,
2013-01-17 13:53:00,32.0,7.0,30.37,NE,44,0.0,6.0,34,0.00,,,0.00,,2013-01-17 19:53:00,
2013-01-17 14:03:00,32.0,7.0,30.37,NE,44,0.0,6.0,34,0.00,,,0.00,,2013-01-17 20:03:00,
2013-01-17 14:12:00,32.0,7.0,30.37,NE,44,0.0,6.0,34,0.00,,,0.00,,2013-01-17 20:12:00,
2013-01-17 14:23:00,32.0,7.0,30.37,NE,44,0.0,6.0,34,0.00,,,0.00,,2013-01-17 20:23:00,
2013-01-17 15:53:00,36.0,12.0,30.37,WNW,293,6.0,8.0,36,0.00,,,0.00,,2013-01-17 21:53:00,
2013-01-17 16:03:00,36.0,12.0,30.37,WNW,293,6.0,8.0,36,0.00,,,0.00,,2013-01-17 22:03:00,
2013-01-17 16:12:00,36.0,12.0,30.37,WNW,293,6.0,8.0,36,0.00,,,0.00,,2013-01-17 22:12:00,
2013-01-17 16:23:00,36.0,12.0,30.37,WNW,293,6.0,8.0,36,0.00,,,0.00,,2013-01-17 22:23:00,
2013-01-17 17:53:00,35.0,11.0,30.37,West,274,0.0,0.0,37,0.00,,,0.00,,2013-01-17 23:53:00,
2013-01-17 18:03:00,35.0,11.0,30.37,West,274,0.0,0.0,37,0.00,,,0.00,,2013-01-18 00:03:00,
2013-01-17 18:12:00,35.0,11.0,30.37,West,274,0.0,0.0,37,0.00,,,0.00,,2013-01-18 00:12:00,
2013-01-17 18:23:00,35.0,11.0,30.37,West,274,0.0,0.0,37,0.00,,,0.00,,2013-01-18 00:23:00,
2013-01-17 19:53:00,28.0,8.0,30.37,West,281,0.0,0.0,42,0.00,,,0.00,,2013-01-18 01:53:00,
2013-01-17 20:03:00,28.0,8.0,30.37,West,281,0.0,0.0,42,0.00,,,0.00,,2013-01-18 02:03:00,
2013-01-17 20:12:00,28.0,8.0,30.37,West,281,0.0,0.0,42,0.00,,,0.00,,2013-01-18 02:12:00,
2013-01-17 20:22:00,28.0,8.0,30.37,West,281,0.0,0.0,42,0.00,,,0.00,,2013-01-18 02:22:00,
2013-01-17 21:53:00,25.0,9.0,30.34,ESE,121,0.0,0.0,49,0.00,,,0.00,,2013-01-18 03:53:00,
2013-01-17 22:02:00,25.0,9.0,30.34,ESE,121,0.0,0.0,49,0.00,,,0.00,,2013-01-18 04:02:00,
2013-01-17 22:12:00,25.0,9.0,30.34,ESE,121,0.0,0.0,49,0.00,,,0.00,,2013-01-18 04:12:00,
2013-01-17 22:22:00,25.0,9.0,30.34,ESE,121,0.0,0.0,49,0.00,,,0.00,,2013-01-18 04:22:00,
2013-01-17 23:53:00,22.0,8.0,30.34,ESE,118,0.0,0.0,55,0.00,,,0.00,,2013-01-18 05:53:00,